Time;durP1;ratioP1;P1;durP2;ratioP2;P2;SDS_P1;SDS_P2;PMS_P1;PMS_P2;Temp;Humidity;BMP_temperature;BMP_pressure;BME280_temperature;BME280_humidity;BME280_pressure;Samples;Min_cycle;Max_cycle;Signal;HPM_P1;HPM_P2
2023/07/12 04:00:44;;;;;;;0.80;0.40;;;23.50;99.90;;;;;;5999689;23;21948;31
2023/07/12 04:03:13;;;;;;;0.80;0.40;;;23.30;99.90;;;;;;4929333;29;20475;-71
2023/07/12 04:05:43;;;;;;;0.70;0.10;;;23.10;99.90;;;;;;4943289;28;20442;-70
2023/07/12 04:08:12;;;;;;;10.03;9.43;;;23.00;99.90;;;;;;4935103;29;20537;-72
2023/07/12 04:10:40;;;;;;;2.40;1.60;;;22.90;99.90;;;;;;4942147;28;20458;-70
2023/07/12 04:13:08;;;;;;;0.70;0.20;;;23.00;99.90;;;;;;4973451;28;20964;-70
2023/07/12 04:15:36;;;;;;;0.70;0.10;;;23.20;99.90;;;;;;4974235;28;20496;-73
2023/07/12 04:18:06;;;;;;;0.70;0.20;;;23.30;99.90;;;;;;4970660;28;20494;-73
2023/07/12 04:20:38;;;;;;;0.70;0.30;;;20.90;99.90;;;;;;4954162;28;20461;-73
2023/07/12 04:23:06;;;;;;;0.70;0.30;;;23.40;99.90;;;;;;4955111;28;20967;-73
2023/07/12 04:25:35;;;;;;;1.10;0.83;;;23.20;99.90;;;;;;4954691;29;20498;-73
2023/07/12 04:28:02;;;;;;;0.70;0.20;;;23.10;99.90;;;;;;4954852;29;20969;-72
2023/07/12 04:30:30;;;;;;;2.10;1.30;;;23.00;99.90;;;;;;4953885;28;20812;-72
2023/07/12 04:32:58;;;;;;;0.60;0.10;;;23.10;99.90;;;;;;4955496;28;20840;-73
2023/07/12 04:35:28;;;;;;;0.70;0.20;;;23.20;99.90;;;;;;4962940;28;20449;-73
2023/07/12 04:37:56;;;;;;;1.83;1.70;;;;;;;;;;4955161;28;20515;-72
2023/07/12 04:40:24;;;;;;;1.53;1.43;;;22.90;99.90;;;;;;4955348;29;20454;-73
2023/07/12 04:42:52;;;;;;;0.83;0.70;;;22.90;99.90;;;;;;4954394;28;20602;-73
2023/07/12 04:45:20;;;;;;;2.00;0.63;;;22.70;99.90;;;;;;4954468;28;20675;-75
2023/07/12 04:47:48;;;;;;;0.70;0.40;;;22.80;99.90;;;;;;4965970;28;20481;-75
2023/07/12 04:50:16;;;;;;;0.67;0.10;;;;;;;;;;4974468;28;20477;-75
2023/07/12 04:52:46;;;;;;;4.50;3.40;;;22.90;99.90;;;;;;4973340;28;21046;-74
2023/07/12 04:55:22;;;;;;;0.97;0.53;;;22.90;99.90;;;;;;4960935;28;20450;-73
2023/07/12 04:57:50;;;;;;;0.80;0.50;;;23.00;99.90;;;;;;4961096;29;20541;-73
2023/07/12 05:00:18;;;;;;;0.60;0.10;;;23.00;99.90;;;;;;4963089;29;20473;-74
2023/07/12 05:02:47;;;;;;;0.60;0.10;;;23.00;99.90;;;;;;4960681;28;20534;-74
2023/07/12 05:05:15;;;;;;;0.90;0.60;;;23.10;99.90;;;;;;4957907;28;20478;-73
2023/07/12 05:07:43;;;;;;;1.10;0.40;;;23.20;99.90;;;;;;4955115;28;20541;-73
2023/07/12 05:10:13;;;;;;;0.70;0.27;;;;;;;;;;4954282;29;20489;-72
2023/07/12 05:12:41;;;;;;;0.80;0.43;;;23.00;99.90;;;;;;4954623;28;20478;-71
2023/07/12 05:15:11;;;;;;;0.70;0.20;;;23.00;99.90;;;;;;4955713;29;20526;-73
2023/07/12 05:17:40;;;;;;;1.10;1.00;;;22.90;99.90;;;;;;4956977;28;20506;-75
2023/07/12 05:20:14;;;;;;;3.17;1.17;;;22.90;99.90;;;;;;4959596;28;20858;-73
2023/07/12 05:22:43;;;;;;;0.60;0.20;;;22.80;99.90;;;;;;4973558;28;20460;-73
2023/07/12 05:25:12;;;;;;;0.60;0.10;;;22.90;99.90;;;;;;4973292;28;20984;-72
2023/07/12 05:27:41;;;;;;;0.93;0.70;;;22.90;99.90;;;;;;4961125;28;20768;-73
2023/07/12 05:30:10;;;;;;;0.60;0.10;;;22.90;99.90;;;;;;4949430;29;20533;-74
2023/07/12 05:32:40;;;;;;;1.63;1.10;;;;;;;;;;4953298;28;20549;-74
2023/07/12 05:35:09;;;;;;;0.90;0.57;;;22.70;99.90;;;;;;4961049;28;20799;-75
2023/07/12 05:37:37;;;;;;;1.53;1.07;;;;;;;;;;4953154;28;20454;-74
2023/07/12 05:40:06;;;;;;;0.70;0.50;;;22.90;99.90;;;;;;4944068;28;20814;-72
2023/07/12 05:42:40;;;;;;;1.83;0.40;;;23.00;99.90;;;;;;4959313;28;20538;-72
2023/07/12 05:45:09;;;;;;;0.60;0.20;;;23.10;99.90;;;;;;4948753;29;20508;-71
2023/07/12 05:47:38;;;;;;;0.60;0.20;;;23.20;99.90;;;;;;4943873;28;20546;-72
2023/07/12 05:50:09;;;;;;;0.70;0.20;;;23.40;99.90;;;;;;4951256;28;20445;-71
2023/07/12 05:52:37;;;;;;;0.70;0.20;;;23.50;99.90;;;;;;4956659;28;20477;-75
2023/07/12 05:55:08;;;;;;;0.70;0.20;;;23.60;99.90;;;;;;4957451;29;20445;-71
2023/07/12 05:57:38;;;;;;;0.70;0.10;;;23.70;99.90;;;;;;4960021;28;20457;-68
2023/07/12 06:00:10;;;;;;;0.70;0.20;;;23.90;99.90;;;;;;4945342;29;20993;-70
2023/07/12 06:02:38;;;;;;;0.70;0.20;;;;;;;;;;4953190;28;20484;-70
2023/07/12 06:05:08;;;;;;;0.70;0.17;;;24.00;99.90;;;;;;4955929;29;20485;-70
2023/07/12 06:07:36;;;;;;;0.70;0.10;;;23.90;99.90;;;;;;4956117;29;20445;-70
2023/07/12 06:10:04;;;;;;;0.70;0.10;;;24.00;99.90;;;;;;4955334;28;20485;-70
2023/07/12 06:12:32;;;;;;;0.70;0.10;;;24.10;99.90;;;;;;4955684;28;20880;-69
2023/07/12 06:15:02;;;;;;;0.70;0.10;;;24.10;99.90;;;;;;4964289;28;20521;-69
2023/07/12 06:17:31;;;;;;;0.70;0.10;;;;;;;;;;4972001;28;20448;-68
2023/07/12 06:19:59;;;;;;;0.70;0.20;;;;;;;;;;4953642;28;20885;-69
2023/07/12 06:22:27;;;;;;;0.70;0.10;;;;;;;;;;4954132;29;20999;-68
2023/07/12 06:24:56;;;;;;;0.70;0.10;;;;;;;;;;4947609;28;20498;-70
2023/07/12 06:27:24;;;;;;;0.70;0.30;;;24.20;90.90;;;;;;4952210;28;20449;-70
2023/07/12 06:29:53;;;;;;;0.70;0.20;;;24.10;89.90;;;;;;4946992;29;20436;-69
2023/07/12 06:32:22;;;;;;;0.80;0.30;;;24.20;90.40;;;;;;4948373;28;20574;-71
2023/07/12 06:34:50;;;;;;;0.70;0.10;;;22.60;87.20;;;;;;4937006;29;20471;-72
2023/07/12 06:37:18;;;;;;;0.70;0.20;;;24.30;86.40;;;;;;4938606;29;20479;-71
2023/07/12 06:39:46;;;;;;;0.70;0.20;;;24.30;82.50;;;;;;4956720;28;20564;-71
2023/07/12 06:42:14;;;;;;;0.70;0.20;;;24.30;71.50;;;;;;4955681;28;20570;-70
2023/07/12 06:44:42;;;;;;;0.70;0.30;;;;;;;;;;4955622;28;20455;-71
2023/07/12 06:47:10;;;;;;;0.70;0.17;;;24.30;68.00;;;;;;4955754;29;20540;-72
2023/07/12 06:49:39;;;;;;;0.70;0.10;;;24.30;68.20;;;;;;4960238;28;20511;-70
2023/07/12 06:52:10;;;;;;;0.70;0.10;;;24.30;65.20;;;;;;4968673;28;20521;-71
2023/07/12 06:54:38;;;;;;;0.70;0.10;;;24.30;61.00;;;;;;4952707;28;20443;-70
2023/07/12 06:57:06;;;;;;;0.70;0.17;;;24.30;56.80;;;;;;4958215;28;20827;-70
2023/07/12 06:59:34;;;;;;;0.70;0.17;;;;;;;;;;4974169;28;20477;-70
2023/07/12 07:02:03;;;;;;;0.70;0.10;;;;;;;;;;4957726;28;20482;-68
2023/07/12 07:04:31;;;;;;;0.70;0.10;;;;;;;;;;4954873;28;20451;-68
2023/07/12 07:07:00;;;;;;;0.70;0.10;;;24.20;48.70;;;;;;4955279;28;20447;-71
2023/07/12 07:09:29;;;;;;;0.70;0.20;;;;;;;;;;4955194;29;20609;-70
2023/07/12 07:11:57;;;;;;;0.70;0.10;;;;;;;;;;4970635;28;20524;-68
2023/07/12 07:14:25;;;;;;;0.70;0.20;;;24.20;45.40;;;;;;4974489;28;20451;-68
2023/07/12 07:16:53;;;;;;;0.90;0.80;;;;;;;;;;4971307;28;20505;-69
2023/07/12 07:19:21;;;;;;;0.70;0.10;;;24.20;42.90;;;;;;4953084;28;21361;-69
2023/07/12 07:21:50;;;;;;;0.70;0.10;;;;;;;;;;4956264;28;20933;-69
2023/07/12 07:24:19;;;;;;;2.60;0.40;;;24.20;42.10;;;;;;4950786;29;20464;-69
2023/07/12 07:26:47;;;;;;;0.70;0.30;;;;;;;;;;4960944;28;20501;-66
2023/07/12 07:29:15;;;;;;;1.00;0.30;;;;;;;;;;4959823;28;20457;-68
2023/07/12 07:31:43;;;;;;;0.70;0.13;;;24.30;36.60;;;;;;4952862;28;21204;-69
2023/07/12 07:34:13;;;;;;;0.70;0.10;;;;;;;;;;4954292;29;20557;-69
2023/07/12 07:36:40;;;;;;;0.70;0.10;;;24.30;37.40;;;;;;4953079;28;20961;-68
2023/07/12 07:39:08;;;;;;;0.70;0.10;;;24.40;33.80;;;;;;4954672;29;20854;-69
2023/07/12 07:41:38;;;;;;;0.70;0.20;;;24.40;34.50;;;;;;4954990;29;20470;-67
2023/07/12 07:44:06;;;;;;;0.70;0.10;;;;;;;;;;4954208;28;20493;-68
2023/07/12 07:46:34;;;;;;;0.70;0.20;;;24.60;35.20;;;;;;4955335;29;20474;-70
2023/07/12 07:49:02;;;;;;;0.70;0.30;;;;;;;;;;4954743;29;20560;-70
2023/07/12 07:51:31;;;;;;;0.70;0.10;;;;;;;;;;4951455;28;20470;-70
2023/07/12 07:53:59;;;;;;;0.70;0.10;;;;;;;;;;4943787;29;20538;-69
2023/07/12 07:56:28;;;;;;;0.70;0.20;;;24.80;30.00;;;;;;4943687;28;20503;-69
2023/07/12 07:58:57;;;;;;;0.70;0.20;;;24.80;29.30;;;;;;4951609;28;20454;-70
2023/07/12 08:01:25;;;;;;;0.70;0.10;;;24.90;28.30;;;;;;4948349;29;20470;-70
2023/07/12 08:03:53;;;;;;;0.70;0.10;;;;;;;;;;4950268;29;20439;-70
2023/07/12 08:06:21;;;;;;;0.70;0.10;;;;;;;;;;4946483;28;20494;-70
2023/07/12 08:08:50;;;;;;;0.70;0.20;;;25.00;27.20;;;;;;4953539;28;20464;-71
2023/07/12 08:11:18;;;;;;;0.70;0.20;;;25.00;26.30;;;;;;4952151;28;20484;-70
2023/07/12 08:13:46;;;;;;;0.70;0.20;;;;;;;;;;4957252;28;20899;-67
2023/07/12 08:16:15;;;;;;;0.70;0.10;;;25.10;25.50;;;;;;4953585;29;20541;-68
2023/07/12 08:18:43;;;;;;;0.70;0.10;;;;;;;;;;4962894;28;20540;-68
2023/07/12 08:21:12;;;;;;;0.70;0.10;;;25.20;23.10;;;;;;4960333;28;20482;-69
2023/07/12 08:23:40;;;;;;;0.70;0.20;;;25.20;23.70;;;;;;4969471;28;20469;-68
2023/07/12 08:26:09;;;;;;;0.70;0.10;;;25.20;22.30;;;;;;4952950;28;20450;-69
2023/07/12 08:28:37;;;;;;;0.70;0.10;;;;;;;;;;4972000;28;20879;-69
2023/07/12 08:31:05;;;;;;;0.70;0.10;;;;;;;;;;4956145;28;20494;-69
2023/07/12 08:33:38;;;;;;;0.70;0.20;;;25.30;20.50;;;;;;4960631;28;20489;-68
2023/07/12 08:36:06;;;;;;;0.70;0.10;;;25.30;19.30;;;;;;4953579;28;20481;-68
2023/07/12 08:38:34;;;;;;;0.70;0.10;;;25.30;20.00;;;;;;4949226;29;20880;-69
2023/07/12 08:41:13;;;;;;;0.70;0.10;;;25.20;15.50;;;;;;4953768;28;20606;-68
2023/07/12 08:43:41;;;;;;;0.70;0.20;;;;;;;;;;4960956;28;20442;-70
2023/07/12 08:46:15;;;;;;;0.70;0.10;;;25.30;18.10;;;;;;4953625;29;20555;-68
2023/07/12 08:48:45;;;;;;;0.70;0.20;;;25.50;18.90;;;;;;4953983;28;20525;-68
2023/07/12 08:51:16;;;;;;;0.90;0.20;;;25.60;11.70;;;;;;4965040;28;20469;-67
2023/07/12 08:53:46;;;;;;;0.70;0.10;;;25.60;3.70;;;;;;4972726;28;20532;-68
2023/07/12 08:56:15;;;;;;;0.70;0.10;;;25.50;3.30;;;;;;4966011;28;21113;-69
2023/07/12 08:58:45;;;;;;;0.70;0.10;;;25.50;3.70;;;;;;4949539;28;20475;-67
2023/07/12 09:01:17;;;;;;;1.43;0.73;;;25.50;1.00;;;;;;4959284;28;20577;-65
2023/07/12 09:03:47;;;;;;;0.70;0.13;;;25.30;1.00;;;;;;4956086;28;20474;-66
2023/07/12 09:06:16;;;;;;;0.70;0.10;;;25.30;3.90;;;;;;4959708;28;20828;-67
2023/07/12 09:08:49;;;;;;;0.70;0.10;;;25.50;1.00;;;;;;4943745;28;20561;-69
2023/07/12 09:11:20;;;;;;;0.70;0.20;;;25.50;1.00;;;;;;4960413;28;20957;-68
2023/07/12 09:13:49;;;;;;;2.30;2.20;;;25.50;1.00;;;;;;4961483;28;20515;-67
2023/07/12 09:16:24;;;;;;;1.17;0.63;;;25.50;1.00;;;;;;4958837;28;20482;-67
2023/07/12 09:18:56;;;;;;;0.70;0.10;;;25.50;1.00;;;;;;4970229;28;20507;-68
2023/07/12 09:21:26;;;;;;;1.63;1.10;;;25.60;1.00;;;;;;4957861;28;20589;-67
2023/07/12 09:24:00;;;;;;;0.70;0.10;;;25.60;1.00;;;;;;4963880;28;20454;-68
2023/07/12 09:26:31;;;;;;;0.70;0.20;;;25.70;1.00;;;;;;4953402;28;20984;-68
2023/07/12 09:28:59;;;;;;;0.70;0.13;;;25.80;1.00;;;;;;4957586;28;20443;-66
2023/07/12 09:31:30;;;;;;;1.03;0.43;;;25.80;1.00;;;;;;4950466;29;20533;-68
2023/07/12 09:34:05;;;;;;;0.70;0.20;;;25.60;1.00;;;;;;4957422;28;20996;-68
2023/07/12 09:36:35;;;;;;;0.70;0.10;;;25.60;1.00;;;;;;4962032;28;20542;-67
2023/07/12 09:39:05;;;;;;;0.70;0.20;;;25.80;1.00;;;;;;4961797;28;20469;-68
2023/07/12 09:41:34;;;;;;;0.70;0.20;;;;;;;;;;4965435;28;20482;-68
2023/07/12 09:44:02;;;;;;;1.33;0.63;;;26.00;1.00;;;;;;4951609;28;20564;-67
2023/07/12 09:46:37;;;;;;;0.70;0.10;;;26.00;1.00;;;;;;4970659;28;20477;-68
2023/07/12 09:49:14;;;;;;;0.80;0.20;;;26.10;1.00;;;;;;4962656;28;20458;-68
2023/07/12 09:51:52;;;;;;;0.80;0.20;;;26.00;1.00;;;;;;4967092;28;20478;-68
2023/07/12 09:54:32;;;;;;;4.70;0.80;;;25.90;1.00;;;;;;4957056;28;20459;-70
2023/07/12 09:57:07;;;;;;;0.70;0.20;;;25.90;1.00;;;;;;4955873;28;20485;-68
2023/07/12 09:59:45;;;;;;;0.70;0.10;;;26.00;1.00;;;;;;4954727;28;20537;-69
2023/07/12 10:02:22;;;;;;;0.70;0.20;;;26.10;1.00;;;;;;4958502;28;20599;-69
2023/07/12 10:04:56;;;;;;;0.70;0.20;;;26.20;1.00;;;;;;4961764;28;20485;-70
2023/07/12 10:07:34;;;;;;;0.80;0.57;;;26.20;1.00;;;;;;4963058;28;21114;-71
2023/07/12 10:10:02;;;;;;;0.70;0.10;;;26.30;1.00;;;;;;4959240;28;20452;-68
2023/07/12 10:12:35;;;;;;;0.70;0.20;;;26.40;1.00;;;;;;4956352;28;21040;-69
2023/07/12 10:15:03;;;;;;;0.70;0.10;;;26.50;1.00;;;;;;4956339;28;20541;-69
2023/07/12 10:17:35;;;;;;;0.70;0.10;;;26.70;1.00;;;;;;4952481;29;20508;-69
2023/07/12 10:20:06;;;;;;;0.70;0.20;;;26.90;1.00;;;;;;4952481;28;20992;-70
2023/07/12 10:22:38;;;;;;;0.70;0.10;;;27.00;1.00;;;;;;4964518;28;20485;-69
2023/07/12 10:25:18;;;;;;;0.70;0.20;;;27.20;1.00;;;;;;4959088;28;20500;-69
2023/07/12 10:27:53;;;;;;;1.20;0.60;;;25.30;1.00;;;;;;4957770;28;20513;-69
2023/07/12 10:30:33;;;;;;;2.20;1.40;;;27.20;1.00;;;;;;4972714;28;20462;-71
2023/07/12 10:33:14;;;;;;;0.70;0.20;;;27.30;1.00;;;;;;4958459;28;20453;-69
2023/07/12 10:35:47;;;;;;;0.70;0.10;;;27.40;1.00;;;;;;4967040;28;20949;-70
2023/07/12 10:38:17;;;;;;;0.70;0.10;;;27.40;1.00;;;;;;4975344;28;20444;-69
2023/07/12 10:40:51;;;;;;;0.90;0.20;;;27.50;1.00;;;;;;4963312;28;20495;-69
2023/07/12 10:43:24;;;;;;;1.33;0.67;;;27.20;1.00;;;;;;4954461;28;20549;-68
2023/07/12 10:45:54;;;;;;;1.10;0.70;;;26.90;1.00;;;;;;4956584;28;20458;-68
2023/07/12 10:48:26;;;;;;;5.07;1.17;;;26.70;1.00;;;;;;4960850;28;20438;-68
2023/07/12 10:51:12;;;;;;;0.70;0.20;;;26.50;1.00;;;;;;4954251;28;20463;-69
2023/07/12 10:53:49;;;;;;;0.70;0.13;;;26.40;1.00;;;;;;4954762;29;20470;-67
2023/07/12 10:56:19;;;;;;;1.00;0.40;;;26.50;1.00;;;;;;4954354;28;20533;-67
2023/07/12 10:58:51;;;;;;;0.80;0.33;;;26.70;1.00;;;;;;4954866;28;20547;-68
2023/07/12 11:01:50;;;;;;;1.50;1.07;;;26.80;1.00;;;;;;4962718;28;20907;-68
2023/07/12 11:04:25;;;;;;;0.90;0.40;;;26.90;1.00;;;;;;4955841;29;20446;-68
2023/07/12 11:07:01;;;;;;;1.30;0.83;;;26.90;1.00;;;;;;4955817;29;20517;-67
2023/07/12 11:10:02;;;;;;;1.87;0.90;;;26.80;1.00;;;;;;4962044;28;20524;-68
2023/07/12 11:12:39;;;;;;;34.37;1.70;;;26.60;1.00;;;;;;4954046;28;21233;-66
2023/07/12 11:15:18;;;;;;;0.80;0.47;;;26.60;1.00;;;;;;4950674;28;20988;-66
2023/07/12 11:17:54;;;;;;;1.00;0.20;;;26.80;1.00;;;;;;4949757;28;20518;-68
2023/07/12 11:20:25;;;;;;;1.87;0.57;;;27.00;1.00;;;;;;4953710;28;20468;-69
2023/07/12 11:22:57;;;;;;;0.70;0.40;;;27.00;1.00;;;;;;4952436;28;21003;-68
2023/07/12 11:25:40;;;;;;;2.60;1.07;;;27.00;1.00;;;;;;4958011;28;20477;-67
2023/07/12 11:28:40;;;;;;;1.37;0.83;;;27.00;1.00;;;;;;4939761;29;20790;-68
2023/07/12 11:31:31;;;;;;;0.70;0.20;;;27.20;1.00;;;;;;4955591;28;20482;-67
2023/07/12 11:34:06;;;;;;;0.77;0.33;;;27.50;1.00;;;;;;4963920;28;20450;-68
2023/07/12 11:36:36;;;;;;;0.70;0.20;;;27.50;1.00;;;;;;4964538;28;20525;-67
2023/07/12 11:39:14;;;;;;;1.20;0.87;;;27.50;1.00;;;;;;4952010;28;20489;-68
2023/07/12 11:41:53;;;;;;;0.90;0.40;;;27.50;1.00;;;;;;4963418;28;21040;-68
2023/07/12 11:44:20;;;;;;;0.70;0.20;;;27.60;1.00;;;;;;4965240;28;20466;-68
2023/07/12 11:46:51;;;;;;;0.77;0.27;;;27.60;1.00;;;;;;4956380;28;20450;-68
2023/07/12 11:49:22;;;;;;;0.70;0.20;;;27.80;1.00;;;;;;4957932;28;20475;-69
2023/07/12 11:51:54;;;;;;;1.43;0.40;;;27.70;1.00;;;;;;4959521;28;20466;-69
2023/07/12 11:54:26;;;;;;;0.80;0.40;;;27.90;1.00;;;;;;4964089;28;20870;-68
2023/07/12 11:56:59;;;;;;;1.00;0.30;;;27.90;1.00;;;;;;4961441;28;20805;-69
2023/07/12 11:59:30;;;;;;;0.70;0.37;;;27.60;1.00;;;;;;4961380;28;20463;-69
2023/07/12 12:01:58;;;;;;;0.70;0.20;;;27.70;1.00;;;;;;4952674;28;20554;-68
2023/07/12 12:04:30;;;;;;;0.70;0.20;;;27.80;1.00;;;;;;4954210;29;20454;-68
2023/07/12 12:07:03;;;;;;;0.77;0.40;;;28.00;1.00;;;;;;4953588;28;20996;-68
2023/07/12 12:09:35;;;;;;;0.70;0.20;;;27.90;1.00;;;;;;4964147;28;20590;-68
2023/07/12 12:12:08;;;;;;;0.70;0.20;;;27.90;1.00;;;;;;4953752;28;20629;-68
2023/07/12 12:14:40;;;;;;;1.30;0.63;;;27.80;1.00;;;;;;4962348;28;20438;-68
2023/07/12 12:17:15;;;;;;;0.70;0.20;;;27.80;1.00;;;;;;4966965;28;20455;-69
2023/07/12 12:19:48;;;;;;;0.97;0.60;;;27.70;1.00;;;;;;4969396;28;20488;-68
2023/07/12 12:22:18;;;;;;;0.70;0.10;;;27.70;1.00;;;;;;4957079;28;20495;-69
2023/07/12 12:24:50;;;;;;;0.80;0.30;;;27.70;1.00;;;;;;4955543;28;20449;-69
2023/07/12 12:27:21;;;;;;;1.03;0.57;;;27.50;1.00;;;;;;4961073;28;20449;-68
2023/07/12 12:29:50;;;;;;;0.80;0.30;;;27.40;1.00;;;;;;4959222;28;20450;-68
2023/07/12 12:32:21;;;;;;;1.30;0.40;;;27.40;1.00;;;;;;4961182;28;20540;-68
2023/07/12 12:34:52;;;;;;;0.70;0.20;;;27.50;1.00;;;;;;4961361;28;20446;-69
2023/07/12 12:37:23;;;;;;;0.80;0.50;;;27.60;1.00;;;;;;4955050;28;20453;-69
2023/07/12 12:40:00;;;;;;;0.70;0.20;;;27.70;1.00;;;;;;4955580;28;20538;-69
2023/07/12 12:42:29;;;;;;;0.80;0.40;;;27.80;1.00;;;;;;4971752;28;20485;-68
2023/07/12 12:44:58;;;;;;;0.70;0.10;;;28.00;1.00;;;;;;4940116;28;20465;-68
2023/07/12 12:47:29;;;;;;;0.70;0.40;;;28.00;1.00;;;;;;4960393;28;20865;-68
2023/07/12 12:49:57;;;;;;;1.07;0.60;;;;;;;;;;4961090;28;20451;-68
2023/07/12 12:52:30;;;;;;;0.90;0.30;;;27.80;1.00;;;;;;4951633;28;20542;-69
2023/07/12 12:55:04;;;;;;;1.00;0.43;;;27.80;1.00;;;;;;4960816;28;20534;-69
2023/07/12 12:57:52;;;;;;;1.23;0.93;;;28.00;1.00;;;;;;4952972;28;20945;-69
2023/07/12 13:00:42;;;;;;;0.90;0.20;;;28.10;1.00;;;;;;4954969;28;20965;-69
2023/07/12 13:03:14;;;;;;;0.90;0.33;;;28.20;1.00;;;;;;4958600;28;20544;-68
2023/07/12 13:05:45;;;;;;;0.70;0.10;;;28.10;1.00;;;;;;4955533;28;20446;-68
2023/07/12 13:08:18;;;;;;;1.00;0.60;;;28.10;1.00;;;;;;4953230;29;20478;-67
2023/07/12 13:10:51;;;;;;;1.30;0.40;;;;;;;;;;4960090;28;20876;-68
2023/07/12 13:13:22;;;;;;;0.70;0.20;;;28.20;1.00;;;;;;4971786;28;20446;-67
2023/07/12 13:15:52;;;;;;;0.90;0.20;;;28.10;1.00;;;;;;4950385;29;20538;-66
2023/07/12 13:18:40;;;;;;;1.20;0.80;;;;;;;;;;4961528;28;20450;-68
2023/07/12 13:21:19;;;;;;;0.70;0.10;;;27.80;1.00;;;;;;4952679;28;20522;-68
2023/07/12 13:23:48;;;;;;;0.80;0.20;;;27.80;1.00;;;;;;4966480;28;20486;-67
2023/07/12 13:26:19;;;;;;;0.70;0.20;;;27.80;1.00;;;;;;4956732;28;20941;-68
2023/07/12 13:28:47;;;;;;;0.70;0.20;;;27.70;1.00;;;;;;4967119;28;20443;-70
2023/07/12 13:31:16;;;;;;;6.43;4.67;;;27.70;1.00;;;;;;4959657;28;20527;-68
2023/07/12 13:33:45;;;;;;;0.80;0.37;;;27.60;1.00;;;;;;4958143;28;20462;-68
2023/07/12 13:36:31;;;;;;;0.70;0.20;;;27.60;1.00;;;;;;4956817;28;20447;-69
2023/07/12 13:39:10;;;;;;;0.70;0.20;;;27.80;1.00;;;;;;4961841;28;20473;-67
2023/07/12 13:41:42;;;;;;;1.03;0.80;;;27.90;1.00;;;;;;4956693;28;20546;-68
2023/07/12 13:44:14;;;;;;;0.77;0.23;;;28.10;1.00;;;;;;4957766;28;20497;-68
2023/07/12 13:46:45;;;;;;;0.70;0.20;;;28.20;1.00;;;;;;4954367;29;20485;-67
2023/07/12 13:49:16;;;;;;;0.90;0.50;;;28.40;1.00;;;;;;4957189;28;20442;-68
2023/07/12 13:51:45;;;;;;;1.00;0.40;;;28.40;1.00;;;;;;4952490;28;20500;-68
2023/07/12 13:54:13;;;;;;;0.70;0.30;;;28.40;1.00;;;;;;4957582;28;20466;-68
2023/07/12 13:56:44;;;;;;;0.80;0.43;;;28.50;1.00;;;;;;4966255;28;20849;-68
2023/07/12 13:59:15;;;;;;;1.20;1.10;;;28.30;1.00;;;;;;4956359;28;20535;-69
2023/07/12 14:01:45;;;;;;;0.70;0.20;;;28.20;1.00;;;;;;4952244;28;20506;-69
2023/07/12 14:04:33;;;;;;;1.13;0.60;;;28.10;1.00;;;;;;4955836;28;20513;-67
2023/07/12 14:07:05;;;;;;;0.70;0.17;;;28.30;1.00;;;;;;4956403;28;20450;-68
2023/07/12 14:09:36;;;;;;;0.70;0.10;;;28.30;1.00;;;;;;4963271;28;20449;-68
2023/07/12 14:12:12;;;;;;;0.80;0.30;;;28.40;1.00;;;;;;4960153;28;20467;-69
2023/07/12 14:14:42;;;;;;;0.70;0.20;;;28.30;1.00;;;;;;4951326;28;20503;-68
2023/07/12 14:17:12;;;;;;;1.20;0.77;;;28.30;1.00;;;;;;4959059;28;20489;-68
2023/07/12 14:19:42;;;;;;;0.70;0.20;;;28.30;1.00;;;;;;4974231;28;20529;-68
2023/07/12 14:22:13;;;;;;;0.70;0.20;;;28.30;1.00;;;;;;4956824;28;20816;-68
2023/07/12 14:24:42;;;;;;;0.80;0.30;;;28.50;1.00;;;;;;4955671;29;20534;-68
2023/07/12 14:27:20;;;;;;;0.70;0.20;;;28.70;1.00;;;;;;4956368;29;20877;-68
2023/07/12 14:29:49;;;;;;;0.70;0.17;;;28.80;1.00;;;;;;4955785;29;20479;-68
2023/07/12 14:32:22;;;;;;;1.17;0.50;;;28.60;1.00;;;;;;4951420;28;20559;-69
2023/07/12 14:34:51;;;;;;;1.07;0.47;;;;;;;;;;4950353;29;20464;-70
2023/07/12 14:37:21;;;;;;;0.70;0.10;;;28.30;1.00;;;;;;4955388;28;20451;-67
2023/07/12 14:39:49;;;;;;;0.70;0.20;;;28.30;1.00;;;;;;4965530;28;20521;-68
2023/07/12 14:42:22;;;;;;;0.77;0.40;;;28.10;1.00;;;;;;4962116;28;20540;-68
2023/07/12 14:44:50;;;;;;;0.70;0.20;;;27.80;1.00;;;;;;4975293;28;20524;-68
2023/07/12 14:47:19;;;;;;;0.70;0.20;;;27.70;1.00;;;;;;4958051;28;20467;-68
2023/07/12 14:49:47;;;;;;;0.70;0.30;;;27.70;1.00;;;;;;4957178;29;20958;-70
2023/07/12 14:52:25;;;;;;;2.00;0.47;;;26.60;1.00;;;;;;4953703;28;20490;-69
2023/07/12 14:54:54;;;;;;;1.37;1.27;;;27.80;1.00;;;;;;4958444;28;20534;-70
2023/07/12 14:57:28;;;;;;;0.73;0.27;;;27.90;1.00;;;;;;4961358;28;20446;-69
2023/07/12 15:00:18;;;;;;;1.00;0.50;;;28.20;1.00;;;;;;4955504;28;20443;-69
2023/07/12 15:02:51;;;;;;;1.00;0.47;;;28.50;1.00;;;;;;4956571;28;20482;-70
2023/07/12 15:05:19;;;;;;;0.70;0.10;;;28.40;1.00;;;;;;4961436;28;20446;-69
2023/07/12 15:07:48;;;;;;;0.90;0.43;;;28.40;1.00;;;;;;4956418;28;20479;-68
2023/07/12 15:10:18;;;;;;;0.70;0.20;;;28.30;1.00;;;;;;4963849;28;20462;-68
2023/07/12 15:12:48;;;;;;;0.70;0.20;;;;;;;;;;4961084;28;20883;-68
2023/07/12 15:15:19;;;;;;;1.20;0.60;;;28.60;1.00;;;;;;4960178;28;20983;-69
2023/07/12 15:17:57;;;;;;;0.70;0.20;;;28.30;1.00;;;;;;4957657;28;20530;-68
2023/07/12 15:20:26;;;;;;;0.77;0.40;;;28.40;1.00;;;;;;4935494;29;20477;-70
2023/07/12 15:22:54;;;;;;;0.83;0.60;;;28.50;1.00;;;;;;4936841;29;20516;-70
2023/07/12 15:25:23;;;;;;;1.30;1.20;;;28.50;1.00;;;;;;4955368;28;20451;-70
2023/07/12 15:27:54;;;;;;;0.70;0.10;;;28.70;1.00;;;;;;4962289;28;20485;-68
2023/07/12 15:30:25;;;;;;;0.70;0.10;;;28.80;1.00;;;;;;4955641;29;20550;-67
2023/07/12 15:32:53;;;;;;;0.70;0.20;;;28.80;1.00;;;;;;4954941;28;20477;-67
2023/07/12 15:35:27;;;;;;;0.80;0.30;;;28.60;1.00;;;;;;4955282;28;21036;-67
2023/07/12 15:37:57;;;;;;;3.00;0.67;;;28.60;1.00;;;;;;4955657;28;20458;-68
2023/07/12 15:40:45;;;;;;;2.50;0.83;;;;;;;;;;4955434;28;20546;-69
2023/07/12 15:43:19;;;;;;;0.70;0.10;;;28.50;1.00;;;;;;4935192;29;20792;-68
2023/07/12 15:45:47;;;;;;;1.43;0.33;;;28.60;1.00;;;;;;4963487;28;20948;-68
2023/07/12 15:48:19;;;;;;;0.90;0.30;;;28.40;1.00;;;;;;4955244;29;20447;-69
2023/07/12 15:50:51;;;;;;;1.00;0.30;;;28.30;1.00;;;;;;4955888;28;20470;-68
2023/07/12 15:53:21;;;;;;;0.80;0.30;;;28.40;1.00;;;;;;4954386;28;20959;-69
2023/07/12 15:55:50;;;;;;;0.70;0.33;;;28.50;1.00;;;;;;4954946;28;20827;-69
2023/07/12 15:58:22;;;;;;;0.80;0.43;;;28.60;1.00;;;;;;4955183;28;20451;-67
2023/07/12 16:00:52;;;;;;;1.20;0.20;;;28.50;1.00;;;;;;4954949;28;20546;-67
2023/07/12 16:03:23;;;;;;;1.20;0.30;;;28.50;1.00;;;;;;4960010;28;20510;-67
2023/07/12 16:05:52;;;;;;;0.70;0.20;;;28.50;1.00;;;;;;4956683;28;20444;-67
2023/07/12 16:08:21;;;;;;;0.70;0.20;;;28.40;1.00;;;;;;4954895;28;20825;-69
2023/07/12 16:10:51;;;;;;;1.20;0.33;;;28.40;1.00;;;;;;4954626;28;20451;-69
2023/07/12 16:13:24;;;;;;;0.70;0.20;;;28.50;1.00;;;;;;4951144;28;20558;-71
2023/07/12 16:15:53;;;;;;;0.70;0.30;;;28.50;1.00;;;;;;4963244;28;20539;-69
2023/07/12 16:18:22;;;;;;;0.80;0.40;;;28.40;1.00;;;;;;4953364;29;20453;-68
2023/07/12 16:20:54;;;;;;;0.70;0.20;;;28.40;1.00;;;;;;4953901;28;20463;-69
2023/07/12 16:23:27;;;;;;;2.30;1.13;;;28.40;1.00;;;;;;4953272;28;20914;-69
2023/07/12 16:25:55;;;;;;;0.70;0.17;;;28.40;1.00;;;;;;4954057;28;20435;-69
2023/07/12 16:28:24;;;;;;;1.23;0.40;;;28.40;1.00;;;;;;4954076;29;20538;-69
2023/07/12 16:30:52;;;;;;;1.00;0.60;;;28.40;1.00;;;;;;4954003;28;20494;-71
2023/07/12 16:33:24;;;;;;;0.70;0.20;;;28.40;1.00;;;;;;4953201;28;20886;-69
2023/07/12 16:35:54;;;;;;;0.70;0.30;;;28.30;1.00;;;;;;4954474;29;20469;-68
2023/07/12 16:38:24;;;;;;;0.70;0.20;;;28.30;1.00;;;;;;4954083;29;21029;-69
2023/07/12 16:40:57;;;;;;;0.70;0.10;;;28.30;1.00;;;;;;4953644;28;20498;-69
2023/07/12 16:43:26;;;;;;;0.70;0.17;;;28.30;1.00;;;;;;4953890;28;20442;-68
2023/07/12 16:45:54;;;;;;;0.70;0.20;;;28.30;1.00;;;;;;4954605;29;20549;-70
2023/07/12 16:48:23;;;;;;;0.70;0.20;;;28.30;1.00;;;;;;4954523;28;20442;-69
2023/07/12 16:50:51;;;;;;;1.00;0.53;;;28.10;1.00;;;;;;4953843;28;20540;-70
2023/07/12 16:53:25;;;;;;;0.70;0.30;;;28.00;1.00;;;;;;4953801;28;20485;-68
2023/07/12 16:55:53;;;;;;;0.70;0.20;;;27.80;1.00;;;;;;4954438;28;21024;-70
2023/07/12 16:58:22;;;;;;;0.70;0.20;;;27.80;1.00;;;;;;4962170;28;20457;-70
2023/07/12 17:00:54;;;;;;;1.10;0.50;;;27.80;1.00;;;;;;4954036;28;20462;-69
2023/07/12 17:03:23;;;;;;;0.70;0.20;;;27.90;1.00;;;;;;4953901;28;20992;-70
2023/07/12 17:05:52;;;;;;;0.70;0.20;;;28.00;1.00;;;;;;4954308;29;20482;-69
2023/07/12 17:08:25;;;;;;;0.70;0.20;;;28.10;1.00;;;;;;4953966;29;20962;-69
2023/07/12 17:10:55;;;;;;;0.70;0.20;;;28.20;1.00;;;;;;4960548;28;20564;-68
2023/07/12 17:13:25;;;;;;;0.70;0.17;;;28.20;1.00;;;;;;4973018;28;20445;-68
2023/07/12 17:15:55;;;;;;;0.70;0.20;;;28.30;1.00;;;;;;4965888;28;21048;-67
2023/07/12 17:18:23;;;;;;;4.30;0.50;;;28.30;1.00;;;;;;4959804;28;20497;-67
2023/07/12 17:20:53;;;;;;;0.70;0.20;;;28.40;1.00;;;;;;4959808;28;20573;-69
2023/07/12 17:23:25;;;;;;;0.70;0.20;;;28.50;1.00;;;;;;4960251;28;20466;-71
2023/07/12 17:25:56;;;;;;;0.70;0.10;;;28.70;1.00;;;;;;4953673;28;20489;-71